createdAt,value
2023-01-23T00:00:28.724Z,508.00
2023-01-23T00:01:28.723Z,508.00
2023-01-23T00:02:28.721Z,512.00
2023-01-23T00:03:28.701Z,510.00
2023-01-23T00:54:35.058Z,500.00
2023-01-23T00:55:35.926Z,500.00
2023-01-23T00:56:35.917Z,500.00
2023-01-23T00:57:35.913Z,500.00
2023-01-23T00:58:35.898Z,500.00
2023-01-23T00:59:35.885Z,500.00
2023-01-23T01:00:35.878Z,431.00
2023-01-23T01:01:35.901Z,400.00
2023-01-23T01:02:35.908Z,400.00
2023-01-23T01:03:35.865Z,400.00
2023-01-23T01:04:35.844Z,402.00
2023-01-23T01:05:35.833Z,427.00
2023-01-23T01:06:35.822Z,453.00
2023-01-23T01:07:35.815Z,482.00
2023-01-23T01:08:35.811Z,500.00
2023-01-23T01:09:35.816Z,500.00
2023-01-23T01:10:35.912Z,500.00
2023-01-23T01:11:35.795Z,504.00
2023-01-23T01:12:35.776Z,500.00
2023-01-23T01:13:35.765Z,503.00
2023-01-23T01:14:35.751Z,501.00
2023-01-23T01:15:35.743Z,501.00
2023-01-23T01:16:35.742Z,501.00
2023-01-23T01:17:35.728Z,506.00
2023-01-23T01:18:35.715Z,500.00
2023-01-23T01:19:35.718Z,502.00
2023-01-23T01:20:35.706Z,502.00
2023-01-23T01:21:35.695Z,504.00
2023-01-23T01:22:35.684Z,501.00
2023-01-23T01:23:35.684Z,502.00
2023-01-23T01:24:35.671Z,503.00
2023-01-23T01:25:35.659Z,500.00
2023-01-23T01:26:35.777Z,505.00
2023-01-23T01:27:35.641Z,504.00
2023-01-23T01:28:35.633Z,505.00
2023-01-23T01:29:35.621Z,503.00
2023-01-23T01:30:35.682Z,508.00
2023-01-23T01:31:35.772Z,504.00
2023-01-23T01:32:35.598Z,501.00
2023-01-23T01:33:35.597Z,506.00
2023-01-23T01:34:35.577Z,502.00
2023-01-23T01:35:35.572Z,500.00
2023-01-23T01:36:35.562Z,501.00
2023-01-23T01:37:35.565Z,503.00
2023-01-23T01:38:35.553Z,508.00
2023-01-23T01:39:35.534Z,501.00
2023-01-23T01:40:35.532Z,502.00
2023-01-23T01:41:35.527Z,500.00
2023-01-23T01:42:35.632Z,503.00
2023-01-23T01:43:35.498Z,502.00
2023-01-23T01:44:35.491Z,501.00
2023-01-23T01:45:35.482Z,500.00
2023-01-23T01:46:35.667Z,511.00
2023-01-23T01:47:35.467Z,503.00
2023-01-23T01:48:35.461Z,507.00
2023-01-23T01:49:35.456Z,510.00
2023-01-23T01:50:35.455Z,501.00
2023-01-23T01:51:35.435Z,503.00
2023-01-23T01:52:35.427Z,501.00
2023-01-23T01:53:35.411Z,510.00
2023-01-23T01:54:35.412Z,507.00
2023-01-23T01:55:35.402Z,507.00
2023-01-23T01:56:35.380Z,509.00
2023-01-23T01:57:35.386Z,508.00
2023-01-23T01:58:35.483Z,504.00
2023-01-23T01:59:35.360Z,507.00
2023-01-23T02:00:35.389Z,506.00
2023-01-23T02:01:35.362Z,500.00
2023-01-23T02:02:35.337Z,506.00
2023-01-23T02:03:35.327Z,501.00
2023-01-23T02:04:35.311Z,508.00
2023-01-23T02:05:35.307Z,506.00
2023-01-23T02:06:35.310Z,507.00
2023-01-23T02:07:35.308Z,507.00
2023-01-23T02:08:35.288Z,505.00
2023-01-23T02:09:35.277Z,509.00
2023-01-23T02:10:35.262Z,506.00
2023-01-23T02:11:35.250Z,507.00
2023-01-23T02:12:35.247Z,510.00
2023-01-23T02:13:35.231Z,505.00
2023-01-23T02:14:35.349Z,508.00
2023-01-23T02:15:35.216Z,504.00
2023-01-23T02:16:35.331Z,507.00
2023-01-23T02:17:35.200Z,505.00
2023-01-23T02:18:35.193Z,505.00
2023-01-23T02:19:35.181Z,505.00
2023-01-23T02:20:35.170Z,505.00
2023-01-23T02:21:35.161Z,508.00
2023-01-23T02:22:35.152Z,512.00
2023-01-23T02:23:35.160Z,507.00
2023-01-23T02:24:35.135Z,505.00
2023-01-23T02:25:35.141Z,509.00
2023-01-23T02:26:35.121Z,509.00
2023-01-23T02:27:35.115Z,507.00
2023-01-23T02:28:35.099Z,505.00
2023-01-23T02:29:35.098Z,503.00
2023-01-23T02:30:35.229Z,508.00
2023-01-23T02:31:35.170Z,508.00
2023-01-23T02:32:35.069Z,509.00
2023-01-23T02:33:35.057Z,511.00
2023-01-23T02:34:35.045Z,505.00
2023-01-23T02:35:35.036Z,507.00
2023-01-23T02:36:35.036Z,504.00
2023-01-23T02:37:35.023Z,504.00
2023-01-23T02:38:35.011Z,505.00
2023-01-23T02:39:35.010Z,506.00
2023-01-23T02:40:34.994Z,512.00
2023-01-23T02:41:34.983Z,504.00
2023-01-23T02:42:34.975Z,506.00
2023-01-23T02:43:34.971Z,510.00
2023-01-23T02:44:34.971Z,512.00
2023-01-23T02:45:34.970Z,508.00
2023-01-23T02:46:35.058Z,509.00
2023-01-23T02:47:34.942Z,511.00
2023-01-23T02:48:34.919Z,510.00
2023-01-23T02:49:34.970Z,512.00
2023-01-23T02:50:34.908Z,512.00
2023-01-23T02:51:34.914Z,507.00
2023-01-23T02:52:34.893Z,505.00
2023-01-23T02:53:34.873Z,511.00
2023-01-23T02:54:34.874Z,511.00
2023-01-23T02:55:34.875Z,508.00
2023-01-23T02:56:34.853Z,505.00
2023-01-23T02:57:34.864Z,508.00
2023-01-23T02:58:34.839Z,506.00
2023-01-23T02:59:34.829Z,510.00
2023-01-23T03:00:34.813Z,504.00
2023-01-23T03:01:34.809Z,506.00
2023-01-23T03:02:34.914Z,512.00
2023-01-23T03:03:34.803Z,510.00
2023-01-23T03:04:34.792Z,506.00
2023-01-23T03:05:34.773Z,509.00
2023-01-23T03:06:34.760Z,514.00
2023-01-23T03:07:34.755Z,514.00
2023-01-23T03:08:34.742Z,511.00
2023-01-23T03:09:35.563Z,508.00
2023-01-23T03:10:34.733Z,507.00
2023-01-23T03:11:34.718Z,509.00
2023-01-23T03:12:34.713Z,511.00
2023-01-23T03:13:34.700Z,512.00
2023-01-23T03:14:34.692Z,506.00
2023-01-23T03:15:34.679Z,505.00
2023-01-23T03:16:37.256Z,500.00
2023-01-23T03:17:34.669Z,501.00
2023-01-23T03:18:48.942Z,503.00
2023-01-23T03:19:34.656Z,501.00
2023-01-23T03:20:34.642Z,504.00
2023-01-23T03:21:34.630Z,504.00
2023-01-23T03:22:34.621Z,509.00
2023-01-23T03:23:34.610Z,508.00
2023-01-23T03:24:34.611Z,515.00
2023-01-23T03:25:34.606Z,509.00
2023-01-23T03:26:34.583Z,507.00
2023-01-23T03:27:34.581Z,512.00
2023-01-23T03:28:34.569Z,508.00
2023-01-23T03:29:34.556Z,508.00
2023-01-23T03:30:34.578Z,511.00
2023-01-23T03:31:34.592Z,512.00
2023-01-23T03:32:34.541Z,507.00
2023-01-23T03:33:34.525Z,512.00
2023-01-23T03:34:34.633Z,509.00
2023-01-23T03:35:34.517Z,509.00
2023-01-23T03:36:34.576Z,512.00
2023-01-23T03:37:34.490Z,506.00
2023-01-23T03:38:34.479Z,513.00
2023-01-23T03:39:34.471Z,505.00
2023-01-23T03:40:34.473Z,510.00
2023-01-23T03:41:34.454Z,511.00
2023-01-23T03:42:34.450Z,512.00
2023-01-23T03:43:34.437Z,507.00
2023-01-23T03:44:34.422Z,508.00
2023-01-23T03:45:34.523Z,511.00
2023-01-23T03:46:34.410Z,512.00
2023-01-23T03:47:34.422Z,512.00
2023-01-23T03:48:34.389Z,511.00
2023-01-23T03:49:34.383Z,510.00
2023-01-23T03:50:34.496Z,515.00
2023-01-23T03:51:34.364Z,511.00
2023-01-23T03:52:34.354Z,513.00
2023-01-23T03:53:34.354Z,510.00
2023-01-23T03:54:34.338Z,508.00
2023-01-23T03:55:34.338Z,502.00
2023-01-23T03:56:34.322Z,507.00
2023-01-23T03:57:34.312Z,509.00
2023-01-23T03:58:34.305Z,508.00
2023-01-23T03:59:34.293Z,509.00
2023-01-23T04:00:34.286Z,510.00
2023-01-23T04:01:34.277Z,511.00
2023-01-23T04:02:34.315Z,512.00
2023-01-23T04:03:34.262Z,513.00
2023-01-23T04:04:34.256Z,508.00
2023-01-23T04:05:34.242Z,505.00
2023-01-23T04:06:34.258Z,510.00
2023-01-23T04:07:34.222Z,507.00
2023-01-23T04:08:34.215Z,505.00
2023-01-23T04:09:34.212Z,506.00
2023-01-23T04:10:34.198Z,507.00
2023-01-23T04:11:34.206Z,511.00
2023-01-23T04:12:34.178Z,514.00
2023-01-23T04:13:34.182Z,518.00
2023-01-23T04:14:34.163Z,515.00
2023-01-23T04:15:34.170Z,513.00
2023-01-23T04:16:34.152Z,510.00
2023-01-23T04:17:34.138Z,512.00
2023-01-23T04:18:34.137Z,508.00
2023-01-23T04:19:34.116Z,511.00
2023-01-23T04:20:34.112Z,514.00
2023-01-23T04:21:34.098Z,518.00
2023-01-23T04:22:34.218Z,514.00
2023-01-23T04:23:34.087Z,516.00
2023-01-23T04:24:34.075Z,504.00
2023-01-23T04:25:34.067Z,509.00
2023-01-23T04:26:34.060Z,506.00
2023-01-23T04:27:34.046Z,511.00
2023-01-23T04:28:34.033Z,509.00
2023-01-23T04:29:34.029Z,511.00
2023-01-23T04:30:34.115Z,506.00
2023-01-23T04:31:34.158Z,511.00
2023-01-23T04:32:34.008Z,513.00
2023-01-23T04:33:33.999Z,508.00
2023-01-23T04:34:33.990Z,508.00
2023-01-23T04:35:33.970Z,515.00
2023-01-23T04:36:33.965Z,516.00
2023-01-23T04:37:33.961Z,511.00
2023-01-23T04:38:34.090Z,515.00
2023-01-23T04:39:33.949Z,511.00
2023-01-23T04:40:33.952Z,507.00
2023-01-23T04:41:33.924Z,515.00
2023-01-23T04:42:34.601Z,507.00
2023-01-23T04:43:33.906Z,517.00
2023-01-23T04:44:33.898Z,515.00
2023-01-23T04:45:33.887Z,513.00
2023-01-23T04:46:33.878Z,513.00
2023-01-23T04:47:33.871Z,509.00
2023-01-23T04:48:33.867Z,513.00
2023-01-23T04:49:33.868Z,517.00
2023-01-23T04:50:33.843Z,510.00
2023-01-23T04:51:33.829Z,508.00
2023-01-23T04:52:33.831Z,510.00
2023-01-23T04:53:33.826Z,510.00
2023-01-23T04:54:33.948Z,509.00
2023-01-23T04:55:33.800Z,515.00
2023-01-23T04:56:33.788Z,509.00
2023-01-23T04:57:33.778Z,513.00
2023-01-23T04:58:33.770Z,509.00
2023-01-23T04:59:33.769Z,512.00
2023-01-23T05:00:33.756Z,513.00
2023-01-23T05:01:33.866Z,516.00
2023-01-23T05:02:33.789Z,514.00
2023-01-23T05:03:33.727Z,520.00
2023-01-23T05:04:33.722Z,516.00
2023-01-23T05:05:33.712Z,508.00
2023-01-23T05:06:33.706Z,516.00
2023-01-23T05:07:34.608Z,514.00
2023-01-23T05:08:33.697Z,516.00
2023-01-23T05:09:33.678Z,520.00
2023-01-23T05:10:33.785Z,519.00
2023-01-23T05:11:33.665Z,512.00
2023-01-23T05:12:33.655Z,515.00
2023-01-23T05:13:33.647Z,516.00
2023-01-23T05:14:33.634Z,518.00
2023-01-23T05:15:33.658Z,519.00
2023-01-23T05:16:33.620Z,516.00
2023-01-23T05:17:33.610Z,516.00
2023-01-23T05:18:34.112Z,520.00
2023-01-23T05:19:33.586Z,516.00
2023-01-23T05:20:33.585Z,520.00
2023-01-23T05:21:33.589Z,518.00
2023-01-23T05:22:33.583Z,516.00
2023-01-23T05:23:33.555Z,515.00
2023-01-23T05:24:33.547Z,511.00
2023-01-23T05:25:33.537Z,520.00
2023-01-23T05:26:33.651Z,520.00
2023-01-23T05:27:33.515Z,517.00
2023-01-23T05:28:33.507Z,521.00
2023-01-23T05:29:33.507Z,521.00
2023-01-23T05:30:33.603Z,519.00
2023-01-23T05:31:33.585Z,520.00
2023-01-23T05:32:33.476Z,520.00
2023-01-23T05:33:33.459Z,524.00
2023-01-23T05:34:33.455Z,516.00
2023-01-23T05:35:33.457Z,522.00
2023-01-23T05:36:33.441Z,526.00
2023-01-23T05:37:33.434Z,520.00
2023-01-23T05:38:33.426Z,515.00
2023-01-23T05:39:33.414Z,518.00
2023-01-23T05:40:33.401Z,518.00
2023-01-23T05:41:33.404Z,520.00
2023-01-23T05:42:33.515Z,521.00
2023-01-23T05:43:33.382Z,519.00
2023-01-23T05:44:33.428Z,516.00
2023-01-23T05:45:33.395Z,519.00
2023-01-23T05:46:33.456Z,516.00
2023-01-23T05:47:33.375Z,520.00
2023-01-23T05:48:33.395Z,522.00
2023-01-23T05:49:33.343Z,519.00
2023-01-23T05:50:34.549Z,521.00
2023-01-23T05:51:33.325Z,518.00
2023-01-23T05:52:33.311Z,519.00
2023-01-23T05:53:33.292Z,523.00
2023-01-23T05:54:33.283Z,522.00
2023-01-23T05:55:33.274Z,523.00
2023-01-23T05:56:33.261Z,524.00
2023-01-23T05:57:33.250Z,518.00
2023-01-23T05:58:33.417Z,519.00
2023-01-23T05:59:33.257Z,520.00
2023-01-23T06:00:33.233Z,521.00
2023-01-23T06:01:33.221Z,523.00
2023-01-23T06:02:33.260Z,517.00
2023-01-23T06:03:33.250Z,520.00
2023-01-23T06:04:33.189Z,520.00
2023-01-23T06:05:33.190Z,518.00
2023-01-23T06:06:33.176Z,519.00
2023-01-23T06:07:33.177Z,521.00
2023-01-23T06:08:33.160Z,520.00
2023-01-23T06:09:33.146Z,521.00
2023-01-23T06:10:33.143Z,521.00
2023-01-23T06:11:33.128Z,515.00
2023-01-23T06:12:33.118Z,521.00
2023-01-23T06:13:33.136Z,521.00
2023-01-23T06:14:33.227Z,518.00
2023-01-23T06:15:33.195Z,518.00
2023-01-23T06:16:33.105Z,519.00
2023-01-23T06:17:33.107Z,522.00
2023-01-23T06:33:32.935Z,530.00
2023-01-23T06:34:32.930Z,534.00
2023-01-23T06:35:32.919Z,528.00
2023-01-23T06:36:32.913Z,533.00
2023-01-23T06:37:32.906Z,531.00
2023-01-23T06:38:32.904Z,528.00
2023-01-23T06:39:32.882Z,536.00
2023-01-23T06:40:33.157Z,531.00
2023-01-23T06:42:32.862Z,535.00
2023-01-23T06:43:33.154Z,537.00
2023-01-23T06:45:33.166Z,536.00
2023-01-23T06:46:32.972Z,530.00
2023-01-23T06:47:36.053Z,537.00
2023-01-23T06:49:32.800Z,538.00
2023-01-23T06:50:33.157Z,542.00
2023-01-23T06:51:32.786Z,547.00
2023-01-23T06:52:32.781Z,549.00
2023-01-23T06:53:32.770Z,524.00
2023-01-23T06:54:32.761Z,649.00
2023-01-23T06:55:33.155Z,654.00
2023-01-23T06:56:32.744Z,625.00
2023-01-23T06:57:32.741Z,643.00
2023-01-23T06:58:33.722Z,647.00
2023-01-23T07:01:33.731Z,652.00
2023-01-23T07:02:33.329Z,643.00
2023-01-23T07:05:32.989Z,629.00
2023-01-23T07:06:32.718Z,627.00
2023-01-23T07:07:35.898Z,629.00
2023-01-23T07:08:32.660Z,630.00
2023-01-23T07:09:32.661Z,630.00
2023-01-23T07:10:32.630Z,631.00
2023-01-23T07:11:32.678Z,626.00
2023-01-23T07:12:32.618Z,623.00
2023-01-23T07:13:32.626Z,623.00
2023-01-23T07:14:32.736Z,631.00
2023-01-23T07:15:32.595Z,623.00
2023-01-23T07:16:32.639Z,625.00
2023-01-23T07:17:32.575Z,627.00
2023-01-23T07:18:32.738Z,632.00
2023-01-23T07:19:32.665Z,630.00
2023-01-23T07:20:32.551Z,626.00
2023-01-23T07:21:33.850Z,626.00
2023-01-23T07:22:33.273Z,637.00
2023-01-23T07:23:32.521Z,630.00
2023-01-23T07:24:32.667Z,626.00
2023-01-23T07:25:32.684Z,627.00
2023-01-23T07:26:32.499Z,626.00
2023-01-23T07:27:32.671Z,624.00
2023-01-23T07:28:32.648Z,625.00
2023-01-23T07:29:32.467Z,625.00
2023-01-23T07:30:32.539Z,621.00
2023-01-23T07:31:33.260Z,621.00
2023-01-23T07:32:32.454Z,626.00
2023-01-23T07:33:32.444Z,617.00
2023-01-23T07:34:32.545Z,623.00
2023-01-23T07:35:32.420Z,624.00
2023-01-23T07:36:32.686Z,623.00
2023-01-23T07:37:33.224Z,621.00
2023-01-23T07:38:32.396Z,624.00
2023-01-23T07:39:32.381Z,623.00
2023-01-23T07:40:32.455Z,621.00
2023-01-23T07:41:32.675Z,622.00
2023-01-23T07:42:32.392Z,618.00
2023-01-23T07:43:32.366Z,617.00
2023-01-23T07:44:33.336Z,620.00
2023-01-23T07:45:32.351Z,622.00
2023-01-23T07:46:32.411Z,618.00
2023-01-23T07:47:32.679Z,616.00
2023-01-23T07:48:32.339Z,620.00
2023-01-23T07:49:32.307Z,617.00
2023-01-23T07:50:32.406Z,609.00
2023-01-23T07:51:32.277Z,618.00
2023-01-23T07:52:32.684Z,617.00
2023-01-23T07:53:32.258Z,617.00
2023-01-23T07:54:32.247Z,616.00
2023-01-23T07:55:32.270Z,612.00
2023-01-23T07:56:32.682Z,613.00
2023-01-23T07:57:32.230Z,608.00
2023-01-23T07:58:32.217Z,614.00
2023-01-23T07:59:32.206Z,612.00
2023-01-23T08:00:32.460Z,609.00
2023-01-23T08:01:32.682Z,603.00
2023-01-23T08:02:32.180Z,608.00
2023-01-23T08:03:32.198Z,610.00
2023-01-23T08:04:32.723Z,610.00
2023-01-23T08:05:32.575Z,607.00
2023-01-23T08:06:32.276Z,603.00
2023-01-23T08:07:32.142Z,601.00
2023-01-23T08:08:32.123Z,603.00
2023-01-23T08:09:32.119Z,605.00
2023-01-23T08:10:32.190Z,605.00
2023-01-23T08:11:34.308Z,600.00
2023-01-23T08:12:32.189Z,610.00
2023-01-23T08:13:32.080Z,612.00
2023-01-23T08:14:32.077Z,610.00
2023-01-23T08:15:32.069Z,606.00
2023-01-23T08:16:32.232Z,605.00
2023-01-23T08:17:32.691Z,602.00
2023-01-23T08:18:32.048Z,600.00
2023-01-23T08:19:32.059Z,601.00
2023-01-23T08:20:32.041Z,609.00
2023-01-23T08:21:32.040Z,603.00
2023-01-23T08:22:32.369Z,606.00
2023-01-23T08:23:35.200Z,606.00
2023-01-23T08:25:32.090Z,606.00
2023-01-23T08:26:32.201Z,606.00
2023-01-23T08:27:31.979Z,598.00
2023-01-23T08:28:31.965Z,601.00
2023-01-23T08:29:32.945Z,599.00
2023-01-23T08:30:32.067Z,598.00
2023-01-23T08:31:32.025Z,601.00
2023-01-23T08:32:32.195Z,601.00
2023-01-23T08:33:32.214Z,600.00
2023-01-23T08:34:32.197Z,591.00
2023-01-23T08:37:31.870Z,595.00
2023-01-23T08:38:31.999Z,596.00
2023-01-23T08:39:32.203Z,603.00
2023-01-23T08:40:31.852Z,629.00
2023-01-23T08:42:32.242Z,641.00
2023-01-23T08:43:32.266Z,644.00
2023-01-23T08:44:31.845Z,662.00
2023-01-23T08:45:31.811Z,687.00
2023-01-23T08:46:31.835Z,683.00
2023-01-23T08:47:32.384Z,668.00
2023-01-23T08:48:31.781Z,679.00
2023-01-23T08:49:31.771Z,689.00
2023-01-23T08:51:31.794Z,709.00
2023-01-23T08:52:32.211Z,703.00
2023-01-23T08:53:32.219Z,686.00
2023-01-23T08:54:31.846Z,685.00
2023-01-23T08:55:31.828Z,691.00
2023-01-23T08:56:32.229Z,699.00
2023-01-23T08:57:31.704Z,696.00
2023-01-23T08:58:31.704Z,704.00
2023-01-23T09:02:31.814Z,627.00
2023-01-23T09:04:31.637Z,603.00
2023-01-23T09:05:31.623Z,588.00
2023-01-23T09:06:31.621Z,571.00
2023-01-23T09:07:31.897Z,559.00
2023-01-23T09:08:31.715Z,564.00
2023-01-23T09:09:35.731Z,570.00
2023-01-23T10:17:31.648Z,1011.00
2023-01-23T10:25:31.242Z,1062.00
2023-01-23T10:27:31.101Z,1111.00
2023-01-23T10:32:31.814Z,1134.00
2023-01-23T10:54:32.910Z,1346.00
2023-01-23T10:58:30.638Z,1349.00
2023-01-23T11:20:30.496Z,1251.00
2023-01-23T11:37:30.297Z,1304.00
2023-01-23T11:39:30.289Z,1278.00
2023-01-23T11:44:38.058Z,1265.00
2023-01-23T12:38:29.755Z,1002.00
2023-01-23T12:41:29.833Z,1004.00
2023-01-23T12:43:29.816Z,997.00
2023-01-23T12:46:29.878Z,985.00
2023-01-23T12:48:29.855Z,982.00
2023-01-23T12:54:29.630Z,956.00
2023-01-23T12:55:29.985Z,951.00
2023-01-23T12:58:30.573Z,936.00
2023-01-23T13:06:29.831Z,903.00
2023-01-23T13:08:32.345Z,913.00
2023-01-23T13:10:29.464Z,914.00
2023-01-23T13:15:39.586Z,885.00
2023-01-23T13:22:32.489Z,867.00
2023-01-23T13:26:29.483Z,867.00
2023-01-23T13:30:29.340Z,845.00
2023-01-23T13:32:29.458Z,827.00
2023-01-23T13:39:29.342Z,821.00
2023-01-23T13:42:29.178Z,794.00
2023-01-23T13:44:40.254Z,802.00
2023-01-23T13:47:29.344Z,804.00
2023-01-23T13:52:29.353Z,800.00
2023-01-23T13:58:29.037Z,766.00
2023-01-23T14:01:29.349Z,771.00
2023-01-23T14:04:29.533Z,744.00
2023-01-23T14:18:27.858Z,732.00
2023-01-23T14:27:30.569Z,690.00
2023-01-23T14:30:28.750Z,689.00
2023-01-23T14:33:28.861Z,675.00
2023-01-23T14:38:28.863Z,663.00
2023-01-23T14:43:28.899Z,658.00
2023-01-23T14:46:28.663Z,655.00
2023-01-23T14:48:28.869Z,653.00
2023-01-23T14:50:28.878Z,652.00
2023-01-23T14:51:28.566Z,655.00
2023-01-23T14:52:28.625Z,654.00
2023-01-23T14:56:28.877Z,644.00
2023-01-23T15:02:28.486Z,640.00
2023-01-23T15:03:28.903Z,640.00
2023-01-23T15:10:28.393Z,631.00
2023-01-23T15:11:28.383Z,634.00
2023-01-23T15:12:28.377Z,631.00
2023-01-23T15:13:28.381Z,636.00
2023-01-23T15:14:28.355Z,628.00
2023-01-23T15:15:28.355Z,628.00
2023-01-23T15:16:28.405Z,633.00
2023-01-23T15:17:28.506Z,629.00
2023-01-23T15:18:28.383Z,626.00
2023-01-23T15:19:28.322Z,626.00
2023-01-23T15:20:28.366Z,629.00
2023-01-23T15:21:28.299Z,631.00
2023-01-23T15:22:28.294Z,621.00
2023-01-23T15:23:28.557Z,621.00
2023-01-23T15:24:28.299Z,617.00
2023-01-23T15:25:28.260Z,625.00
2023-01-23T15:26:28.381Z,619.00
2023-01-23T15:27:28.249Z,617.00
2023-01-23T15:28:28.234Z,621.00
2023-01-23T15:29:28.284Z,616.00
2023-01-23T15:30:28.213Z,615.00
2023-01-23T15:31:28.549Z,618.00
2023-01-23T15:32:28.195Z,614.00
2023-01-23T15:33:28.316Z,615.00
2023-01-23T15:34:28.179Z,617.00
2023-01-23T15:35:28.173Z,609.00
2023-01-23T15:36:28.152Z,518.00
2023-01-23T15:37:28.184Z,501.00
2023-01-23T15:38:28.141Z,538.00
2023-01-23T15:40:28.140Z,536.00
2023-01-23T15:41:34.519Z,525.00
2023-01-23T15:42:28.571Z,525.00
2023-01-23T15:43:27.170Z,526.00
2023-01-23T15:44:29.014Z,531.00
2023-01-23T15:45:28.084Z,549.00
2023-01-23T15:46:28.093Z,771.00
2023-01-23T15:48:28.053Z,1327.00
2023-01-23T15:49:28.165Z,1523.00
2023-01-23T15:50:28.049Z,1494.00
2023-01-23T15:51:28.023Z,1310.00
2023-01-23T15:52:28.411Z,1306.00
2023-01-23T15:53:28.007Z,1443.00
2023-01-23T15:54:28.000Z,1320.00
2023-01-23T15:55:28.071Z,1159.00
2023-01-23T15:56:27.986Z,1061.00
2023-01-23T15:57:27.979Z,1037.00
2023-01-23T15:58:27.967Z,1029.00
2023-01-23T15:59:27.958Z,1030.00
2023-01-23T16:00:27.960Z,1013.00
2023-01-23T16:01:28.011Z,999.00
2023-01-23T16:02:31.691Z,1010.00
2023-01-23T16:03:27.964Z,1012.00
2023-01-23T16:04:27.910Z,1011.00
2023-01-23T16:05:28.048Z,1003.00
2023-01-23T16:06:27.897Z,997.00
2023-01-23T16:07:27.934Z,964.00
2023-01-23T16:08:27.880Z,974.00
2023-01-23T16:09:27.924Z,984.00
2023-01-23T16:10:27.859Z,963.00
2023-01-23T16:11:27.866Z,968.00
2023-01-23T16:12:27.842Z,1022.00
2023-01-23T16:13:27.938Z,1014.00
2023-01-23T16:14:27.908Z,1010.00
2023-01-23T16:15:27.823Z,980.00
2023-01-23T16:16:27.832Z,955.00
2023-01-23T16:17:27.804Z,946.00
2023-01-23T16:18:27.791Z,982.00
2023-01-23T16:19:27.968Z,994.00
2023-01-23T16:20:27.775Z,966.00
2023-01-23T16:21:27.882Z,972.00
2023-01-23T16:22:27.764Z,977.00
2023-01-23T16:23:31.202Z,955.00
2023-01-23T16:24:27.842Z,957.00
2023-01-23T16:25:38.258Z,960.00
2023-01-23T16:26:27.796Z,958.00
2023-01-23T16:27:27.956Z,962.00
2023-01-23T16:28:28.032Z,956.00
2023-01-23T16:29:27.907Z,958.00
2023-01-23T16:30:27.708Z,931.00
2023-01-23T16:31:27.857Z,921.00
2023-01-23T16:32:27.769Z,905.00
2023-01-23T16:33:27.667Z,911.00
2023-01-23T16:34:27.647Z,907.00
2023-01-23T16:35:27.882Z,906.00
2023-01-23T16:36:27.797Z,897.00
2023-01-23T16:37:27.738Z,902.00
2023-01-23T16:38:27.622Z,889.00
2023-01-23T16:39:27.655Z,880.00
2023-01-23T16:40:27.602Z,882.00
2023-01-23T16:41:27.613Z,879.00
2023-01-23T16:42:27.681Z,876.00
2023-01-23T16:43:27.587Z,877.00
2023-01-23T16:44:27.559Z,862.00
2023-01-23T16:45:27.557Z,864.00
2023-01-23T16:46:27.616Z,851.00
2023-01-23T16:47:27.533Z,848.00
2023-01-23T16:48:28.729Z,852.00
2023-01-23T16:49:27.515Z,862.00
2023-01-23T16:50:27.505Z,841.00
2023-01-23T16:51:27.518Z,829.00
2023-01-23T16:52:27.498Z,807.00
2023-01-23T16:53:27.610Z,825.00
2023-01-23T16:54:27.532Z,822.00
2023-01-23T16:55:27.472Z,821.00
2023-01-23T16:56:27.451Z,801.00
2023-01-23T16:57:27.437Z,808.00
2023-01-23T16:58:27.430Z,795.00
2023-01-23T16:59:27.419Z,793.00
2023-01-23T17:00:34.776Z,800.00
2023-01-23T17:01:27.413Z,801.00
2023-01-23T17:02:27.532Z,801.00
2023-01-23T17:03:27.383Z,803.00
2023-01-23T17:04:27.379Z,770.00
2023-01-23T17:05:27.369Z,766.00
2023-01-23T17:06:27.476Z,775.00
2023-01-23T17:07:27.354Z,774.00
2023-01-23T17:08:27.356Z,764.00
2023-01-23T17:09:27.453Z,768.00
2023-01-23T17:10:37.897Z,750.00
2023-01-23T17:11:27.321Z,752.00
2023-01-23T17:12:27.349Z,755.00
2023-01-23T17:13:27.297Z,756.00
2023-01-23T17:14:27.300Z,753.00
2023-01-23T17:15:27.280Z,750.00
2023-01-23T17:16:28.259Z,734.00
2023-01-23T17:17:27.265Z,754.00
2023-01-23T17:18:27.444Z,744.00
2023-01-23T17:19:27.253Z,745.00
2023-01-23T17:20:27.240Z,731.00
2023-01-23T17:21:27.228Z,731.00
2023-01-23T17:22:27.232Z,711.00
2023-01-23T17:23:27.222Z,702.00
2023-01-23T17:24:27.203Z,710.00
2023-01-23T17:25:27.358Z,695.00
2023-01-23T17:26:27.181Z,691.00
2023-01-23T17:27:27.188Z,697.00
2023-01-23T17:28:27.183Z,684.00
2023-01-23T17:29:27.157Z,692.00
2023-01-23T17:30:27.154Z,678.00
2023-01-23T17:31:27.254Z,678.00
2023-01-23T17:32:27.136Z,679.00
2023-01-23T17:33:27.142Z,680.00
2023-01-23T17:34:28.103Z,667.00
2023-01-23T17:35:27.112Z,674.00
2023-01-23T17:36:27.095Z,664.00
2023-01-23T17:37:27.089Z,666.00
2023-01-23T17:38:27.085Z,664.00
2023-01-23T17:39:27.070Z,665.00
2023-01-23T17:40:27.060Z,652.00
2023-01-23T17:41:27.079Z,660.00
2023-01-23T17:42:27.048Z,659.00
2023-01-23T17:43:27.052Z,654.00
2023-01-23T17:44:27.033Z,648.00
2023-01-23T17:45:27.153Z,654.00
2023-01-23T17:46:27.113Z,648.00
2023-01-23T17:47:27.002Z,651.00
2023-01-23T17:48:26.990Z,649.00
2023-01-23T17:49:26.987Z,650.00
2023-01-23T17:50:26.967Z,649.00
2023-01-23T17:51:26.978Z,646.00
2023-01-23T17:52:26.957Z,642.00
2023-01-23T17:53:26.948Z,647.00
2023-01-23T17:54:26.944Z,643.00
2023-01-23T17:55:26.936Z,642.00
2023-01-23T17:56:26.919Z,636.00
2023-01-23T17:57:27.039Z,640.00
2023-01-23T17:58:27.441Z,634.00
2023-01-23T17:59:26.930Z,636.00
2023-01-23T18:00:26.892Z,636.00
2023-01-23T18:01:26.965Z,627.00
2023-01-23T18:02:27.078Z,631.00
2023-01-23T18:03:26.868Z,626.00
2023-01-23T18:04:26.857Z,629.00
2023-01-23T18:05:26.835Z,624.00
2023-01-23T18:06:29.039Z,623.00
2023-01-23T18:07:26.839Z,624.00
2023-01-23T18:08:26.825Z,624.00
2023-01-23T18:09:26.808Z,625.00
2023-01-23T18:10:26.792Z,624.00
2023-01-23T18:11:26.793Z,624.00
2023-01-23T18:12:26.787Z,618.00
2023-01-23T18:13:26.889Z,617.00
2023-01-23T18:14:26.767Z,617.00
2023-01-23T18:15:26.749Z,620.00
2023-01-23T18:16:26.786Z,617.00
2023-01-23T18:17:26.753Z,616.00
2023-01-23T18:18:26.746Z,614.00
2023-01-23T18:19:26.727Z,612.00
2023-01-23T18:20:26.705Z,611.00
2023-01-23T18:21:26.709Z,608.00
2023-01-23T18:22:26.700Z,610.00
2023-01-23T18:23:26.685Z,611.00
2023-01-23T18:24:26.670Z,604.00
2023-01-23T18:25:26.679Z,597.00
2023-01-23T18:26:26.690Z,604.00
2023-01-23T18:27:26.666Z,604.00
2023-01-23T18:28:26.660Z,602.00
2023-01-23T18:29:26.758Z,606.00
2023-01-23T18:30:26.626Z,598.00
2023-01-23T18:31:26.728Z,598.00
2023-01-23T18:32:26.599Z,601.00
2023-01-23T18:33:26.593Z,599.00
2023-01-23T18:34:26.585Z,592.00
2023-01-23T18:35:26.601Z,596.00
2023-01-23T18:36:26.590Z,598.00
2023-01-23T18:37:26.559Z,599.00
2023-01-23T18:38:26.557Z,596.00
2023-01-23T18:39:26.544Z,594.00
2023-01-23T18:40:25.533Z,595.00
2023-01-23T18:41:26.581Z,592.00
2023-01-23T18:42:26.516Z,590.00
2023-01-23T18:43:26.513Z,588.00
2023-01-23T18:44:26.507Z,591.00
2023-01-23T18:45:27.815Z,589.00
2023-01-23T18:46:26.529Z,588.00
2023-01-23T18:47:26.469Z,586.00
2023-01-23T18:48:26.455Z,588.00
2023-01-23T18:49:32.620Z,584.00
2023-01-23T18:50:26.448Z,585.00
2023-01-23T18:51:26.451Z,586.00
2023-01-23T18:52:26.425Z,585.00
2023-01-23T18:53:26.421Z,586.00
2023-01-23T18:54:26.443Z,586.00
2023-01-23T18:55:26.412Z,580.00
2023-01-23T18:56:26.395Z,582.00
2023-01-23T18:57:26.387Z,581.00
2023-01-23T18:58:26.373Z,576.00
2023-01-23T18:59:26.376Z,578.00
2023-01-23T19:00:26.452Z,581.00
2023-01-23T19:01:26.473Z,580.00
2023-01-23T19:02:26.405Z,572.00